x

Buoy E01 - Central Maine Shelf (44032) Wave Buoy

6:04 - Thu 25th Aug 2016 All times are EDT. -4 hours from GMT.

  • Sig Wave height 2.6ft
  • Peak Period 5s
  • Wind
    16mph, 18mph gusts
  • Sea Temp 61°f
  • Luft Temp 65°f
  • Sea Pressure 1017.4mb
  • Buoy E01 - Central Maine Shelf
  • Buoy E01 - Central Maine Shelf

More Historic Weather Station data

Upgrade to MSW Pro to gain access to the past 30 days of data for over 8000 Wavebouys and Weather Stations around the globe.

Join Pro

Comparision Forecast

View Surf forecast
   
Do 08/25 6:04 2.5ft 5s 16 18 mph 1017.4mb 61f 65f
5:04 2.5ft 4s 13 16 mph 1017.3mb 61f 65f
4:04 2ft 4s 11 13 mph 1017.4mb 62f 65f
3:04 2ft 4s 13 16 mph 1017.3mb 62f 65f
2:04 1.6ft 4s 11 13 mph 1018.1mb 62f 65f
1:04 1.6ft 4s 9
mph
1018.7mb 62f 65f
12:04 1.6ft 4s 4
mph
1019mb 63f 65f
Mi 08/24 11:04 1.6ft 8s 4 7 mph 1019.4mb 63f 65f
10:04 1.3ft 8s 4 7 mph 1019.8mb 62f 65f
9:04 1.6ft 8s 2 4 mph 1020.3mb 62f 64f
8:04 1.6ft 11s 9
mph
1020mb 62f 65f
7:04 1.3ft 4s 7
mph
1019.9mb 63f 64f
6:04 1.3ft 4s 4
mph
1019.9mb 62f 64f
5:04 1.3ft 4s 9 11 mph 1020.1mb 62f 65f
4:04 1.3ft 4s 11 13 mph 1020.3mb 62f 65f
3:04 2ft 5s 7 9 mph 1020.9mb 62f 64f
2:04 2ft 4s 7 9 mph 1021.6mb 62f 64f
1:04 2ft 4s 7
mph
1021.7mb 62f 63f
12:04 1.6ft 8s 7 9 mph 1022mb 61f 63f
11:04 1.6ft 8s 4 7 mph 1022.7mb 61f 63f
10:04 1.6ft 8s 7 9 mph 1022.9mb 60f 62f
9:04 1.6ft 8s 7 9 mph 1022.8mb 60f 62f
8:04 1.3ft 5s 9
mph
1022.8mb 60f 63f
7:04 1.3ft 5s 7
mph
1022.5mb 60f 63f
6:04 1.6ft 5s 7
mph
1021.7mb 60f 62f
5:04 1.6ft 5s 7
mph
1021.7mb 60f 62f
4:04 2ft 5s 7 9 mph 1021.7mb 60f 62f
3:04 2.5ft 5s 7 9 mph 1021.8mb 60f 63f
2:04 2.5ft 5s 9 11 mph 1021.9mb 60f 63f
1:04 2.5ft 4s 11
mph
1022.2mb 60f 64f
12:04 2.5ft 4s 7 9 mph 1022.5mb 60f 63f
Di 08/23 11:04 2.5ft 4s 11
mph
1022.4mb 60f 64f
10:04 2.5ft 8s 11
mph
1022.1mb 61f 64f
9:04 1.6ft 4s 13 16 mph 1022mb 61f 64f
8:04 2ft 8s 11 13 mph 1021.4mb 61f 64f
7:04 1.3ft 4s 11 13 mph 1021.4mb 61f 64f
6:04 1.3ft 4s 11 13 mph 1021.2mb 61f 64f
5:04 1.6ft 4s 11
mph
1021.4mb 61f 64f
4:04 2ft 11s 11 13 mph 1021.7mb 61f 64f
3:04 1.3ft 3s 11 13 mph 1022.2mb 61f 64f
2:04 1.3ft 4s 11 13 mph 1022.5mb 61f 64f
1:04 1.6ft 8s 11 13 mph 1022.9mb 61f 63f
12:04 1.3ft 4s 11 13 mph 1022.9mb 61f 63f
11:04 2ft 11s 11
mph
1023.3mb 60f 62f
10:04 1.6ft 4s 7 9 mph 1023.4mb 60f 62f
9:04 1.6ft 4s 11 13 mph 1022.8mb 59f 62f
8:04 1.6ft 3s 13 16 mph 1022.3mb 59f 62f
7:04 1.6ft 4s 16 18 mph 1021.9mb 59f 62f
6:04 1.6ft 4s 13 16 mph 1021.2mb 60f 61f
5:04 1.6ft 3s 13 16 mph 1020.4mb 60f 61f
4:04 1.6ft 4s 16 18 mph 1020mb 60f 61f
3:04 1.6ft 4s 11 13 mph 1019.6mb 60f 61f
2:04 2ft 3s 13 16 mph 1019.3mb 60f 61f
1:04 1.3ft 3s 13 16 mph 1018.9mb 60f 62f
12:04 1.3ft 3s 11 13 mph 1018.5mb 60f 62f
Mo 08/22 11:04 1.3ft 3s 13 16 mph 1017.9mb 60f 62f
10:04 2ft 4s 13 16 mph 1017.5mb 60f 63f
9:04 2.5ft 4s 13 18 mph 1016.6mb 59f 64f
8:04 2.5ft 4s 18 22 mph 1015.2mb 60f 64f
7:04 3.5ft 4s 20 25 mph 1014.1mb 60f 65f
6:04 3.5ft 4s 25 29 mph 1013.1mb 61f 65f
5:04 3.5ft 4s 20 25 mph 1011.8mb 62f 65f
4:04 3ft 3s 29 34 mph 1010.4mb 63f 67f
3:04 3ft 3s 16 18 mph 1009.7mb 63f 67f
2:04 2.5ft 5s 16 20 mph 1009.1mb 63f 68f
1:04 2.5ft 4s 16 18 mph 1008.5mb 64f 68f
12:04 2.5ft 5s 9 11 mph 1008.4mb 64f 67f
11:04 2.5ft 5s 9 11 mph 1008.1mb 63f 65f
10:04 1.6ft 5s 11 13 mph 1007.5mb 62f 65f
9:04 2ft 5s 11 13 mph 1006.7mb 62f 64f
8:04 2ft 5s 18 22 mph 1006mb 62f 65f
7:04 1.6ft 5s 11
mph
1005.9mb 62f 66f
6:04 1.6ft 4s 9 11 mph 1006.3mb 62f 65f
5:04 2ft 4s 9
mph
1006.9mb 62f 65f
4:04 2ft 4s 9
mph
1007.3mb 63f 64f
3:04 2ft 5s 7
mph
1007.9mb 63f 64f
2:04 2ft 5s 7 9 mph 1008.4mb 63f 64f
1:04 2ft 4s 4 7 mph 1009.4mb 63f 63f
12:04 2ft 5s 9 11 mph 1010.2mb 63f 63f
So 08/21 11:04 2.5ft 4s 11
mph
1010.6mb 63f 63f
10:04 1.6ft 4s 11 13 mph 1011.4mb 64f 63f
9:04 1.6ft 4s 9 11 mph 1012.5mb 64f 63f
8:04 2ft 4s 9
mph
1012.7mb 65f 63f
7:04 1.6ft 4s 9
mph
1012.7mb 64f 63f
6:04 2ft 5s 9
mph
1012.9mb 65f 63f
5:04 1.6ft 4s 11
mph
1012.8mb 65f 63f
4:04 2ft 4s 11 13 mph 1013.2mb 65f 63f
3:04 2ft 4s 11
mph
1013.8mb 64f 64f
2:04 2ft 4s 11
mph
1014.4mb 64f 64f
1:04 2ft 3s 9
mph
1015.2mb 65f 63f
12:04 2.5ft 5s 11 13 mph 1015.5mb 64f 62f